createdAt,value
2023-03-27T00:01:23.882Z,-2.20
2023-03-27T00:03:51.933Z,-2.20
2023-03-27T00:06:20.371Z,-2.20
2023-03-27T00:08:51.368Z,-2.20
2023-03-27T00:11:25.208Z,-2.30
2023-03-27T00:13:54.645Z,-2.20
2023-03-27T00:16:24.133Z,-2.40
2023-03-27T00:18:51.686Z,-2.30
2023-03-27T00:21:19.574Z,-2.30
2023-03-27T00:23:47.063Z,-2.30
2023-03-27T00:26:14.634Z,-2.30
2023-03-27T00:28:42.252Z,-2.30
2023-03-27T00:31:13.675Z,-2.30
2023-03-27T00:33:41.529Z,-2.30
2023-03-27T00:36:10.342Z,-2.20
2023-03-27T00:38:39.903Z,-2.30
2023-03-27T00:41:08.157Z,-2.30
2023-03-27T00:43:36.863Z,-2.20
2023-03-27T00:46:37.598Z,-2.20
2023-03-27T00:49:09.797Z,-2.20
2023-03-27T00:51:38.555Z,-2.30
2023-03-27T00:54:06.442Z,-2.20
2023-03-27T00:56:34.305Z,-2.30
2023-03-27T00:59:11.080Z,-2.30
2023-03-27T01:01:39.839Z,-2.20
2023-03-27T01:04:09.171Z,-2.20
2023-03-27T01:06:38.837Z,-2.20
2023-03-27T01:09:05.807Z,-2.20
2023-03-27T01:12:01.112Z,-2.20
2023-03-27T01:14:36.924Z,-2.20
2023-03-27T01:17:31.133Z,-2.30
2023-03-27T01:20:04.197Z,-2.30
2023-03-27T01:22:36.377Z,-2.20
2023-03-27T01:25:45.188Z,-2.10
2023-03-27T01:28:37.294Z,-2.10
2023-03-27T01:31:25.508Z,-2.10
2023-03-27T01:34:21.909Z,-2.10
2023-03-27T01:37:11.736Z,-2.10
2023-03-27T01:39:51.189Z,-2.10
2023-03-27T01:42:32.815Z,-2.20
2023-03-27T01:45:24.158Z,-2.20
2023-03-27T01:47:51.198Z,-2.30
2023-03-27T01:50:27.945Z,-2.30
2023-03-27T01:53:12.196Z,-2.20
2023-03-27T01:55:44.472Z,-2.20
2023-03-27T01:58:16.722Z,-2.30
2023-03-27T02:00:52.213Z,-2.30
2023-03-27T02:03:35.531Z,-2.30
2023-03-27T02:06:10.670Z,-2.30
2023-03-27T02:09:01.048Z,-2.30
2023-03-27T02:11:33.997Z,-2.30
2023-03-27T02:14:10.042Z,-2.30
2023-03-27T02:16:46.458Z,-2.20
2023-03-27T02:19:35.349Z,-2.20
2023-03-27T02:22:02.560Z,-2.30
2023-03-27T02:24:30.867Z,-2.30
2023-03-27T02:27:09.476Z,-2.30
2023-03-27T02:29:39.372Z,-2.20
2023-03-27T02:32:33.985Z,-2.30
2023-03-27T02:35:20.349Z,-2.40
2023-03-27T02:38:09.397Z,-2.30
2023-03-27T02:40:47.034Z,-2.30
2023-03-27T02:43:42.873Z,-2.30
2023-03-27T02:46:17.993Z,-2.40
2023-03-27T02:48:52.996Z,-2.40
2023-03-27T02:51:31.595Z,-2.30
2023-03-27T02:54:10.075Z,-2.40
2023-03-27T02:56:46.548Z,-2.40
2023-03-27T02:59:22.828Z,-2.40
2023-03-27T03:01:51.104Z,-2.40
2023-03-27T03:04:26.671Z,-2.40
2023-03-27T03:06:54.273Z,-2.40
2023-03-27T03:09:21.316Z,-2.50
2023-03-27T03:11:51.654Z,-2.40
2023-03-27T03:14:29.741Z,-2.40
2023-03-27T03:16:57.402Z,-2.40
2023-03-27T03:19:25.081Z,-2.50
2023-03-27T03:21:52.219Z,-2.40
2023-03-27T03:24:19.566Z,-2.50
2023-03-27T03:26:50.196Z,-2.50
2023-03-27T03:29:19.343Z,-2.50
2023-03-27T03:31:46.756Z,-2.40
2023-03-27T03:34:16.803Z,-2.50
2023-03-27T03:36:49.205Z,-2.50
2023-03-27T03:39:17.449Z,-2.60
2023-03-27T03:41:44.433Z,-2.50
2023-03-27T03:44:11.636Z,-2.50
2023-03-27T03:46:39.449Z,-2.50
2023-03-27T03:49:07.363Z,-2.50
2023-03-27T03:51:37.999Z,-2.50
2023-03-27T03:54:06.867Z,-2.50
2023-03-27T03:56:34.581Z,-2.60
2023-03-27T03:59:01.909Z,-2.50
2023-03-27T04:01:29.250Z,-2.50
2023-03-27T04:03:56.572Z,-2.60
2023-03-27T04:06:26.283Z,-2.50
2023-03-27T04:08:54.006Z,-2.60
2023-03-27T04:11:21.254Z,-2.60
2023-03-27T04:13:48.733Z,-2.80
2023-03-27T04:16:16.183Z,-2.60
2023-03-27T04:18:43.420Z,-2.70
2023-03-27T04:21:19.827Z,-2.70
2023-03-27T04:23:51.402Z,-2.70
2023-03-27T04:26:27.512Z,-2.70
2023-03-27T04:28:54.691Z,-2.70
2023-03-27T04:31:21.894Z,-2.70
2023-03-27T04:33:52.592Z,-2.60
2023-03-27T04:36:20.933Z,-2.70
2023-03-27T04:38:48.238Z,-2.80
2023-03-27T04:41:15.477Z,-2.80
2023-03-27T04:43:42.668Z,-2.80
2023-03-27T04:46:11.237Z,-2.90
2023-03-27T04:48:39.313Z,-2.90
2023-03-27T04:51:09.645Z,-2.80
2023-03-27T04:53:38.022Z,-2.80
2023-03-27T04:56:06.842Z,-2.80
2023-03-27T04:58:36.835Z,-2.80
2023-03-27T05:01:05.989Z,-2.90
2023-03-27T05:03:35.113Z,-2.90
2023-03-27T05:06:04.229Z,-2.90
2023-03-27T05:08:31.972Z,-2.80
2023-03-27T05:10:59.388Z,-2.70
2023-03-27T05:13:26.490Z,-2.70
2023-03-27T05:15:53.723Z,-2.70
2023-03-27T05:18:20.910Z,-2.80
2023-03-27T05:20:50.627Z,-2.80
2023-03-27T05:23:17.720Z,-2.80
2023-03-27T05:25:45.640Z,-2.80
2023-03-27T05:28:29.424Z,-2.80
2023-03-27T05:30:57.610Z,-2.80
2023-03-27T05:33:25.486Z,-2.80
2023-03-27T05:35:53.233Z,-2.80
2023-03-27T05:38:24.825Z,-2.70
2023-03-27T05:40:52.425Z,-2.80
2023-03-27T05:43:19.494Z,-2.70
2023-03-27T05:45:46.533Z,-2.60
2023-03-27T05:48:13.891Z,-2.70
2023-03-27T05:50:42.681Z,-2.70
2023-03-27T05:53:12.212Z,-2.80
2023-03-27T05:55:39.837Z,-2.80
2023-03-27T05:58:11.209Z,-2.90
2023-03-27T06:00:42.459Z,-2.80
2023-03-27T06:03:13.007Z,-2.70
2023-03-27T06:05:41.680Z,-2.70
2023-03-27T06:08:12.010Z,-2.70
2023-03-27T06:10:45.147Z,-2.70
2023-03-27T06:13:15.523Z,-2.80
2023-03-27T06:15:43.713Z,-3.00
2023-03-27T06:18:14.065Z,-2.90
2023-03-27T06:20:44.392Z,-2.90
2023-03-27T06:23:15.444Z,-2.80
2023-03-27T06:25:43.707Z,-2.80
2023-03-27T06:28:11.636Z,-2.80
2023-03-27T06:30:39.076Z,-2.70
2023-03-27T06:33:08.079Z,-2.60
2023-03-27T06:35:35.541Z,-2.70
2023-03-27T06:38:04.222Z,-2.60
2023-03-27T06:40:35.513Z,-2.70
2023-03-27T06:43:10.469Z,-2.70
2023-03-27T06:45:45.488Z,-2.70
2023-03-27T06:48:21.599Z,-2.60
2023-03-27T06:50:55.000Z,-2.60
2023-03-27T06:55:52.404Z,-2.50
2023-03-27T06:58:19.749Z,-2.70
2023-03-27T07:00:49.712Z,-2.60
2023-03-27T07:03:18.470Z,-2.50
2023-03-27T07:05:45.973Z,-2.50
2023-03-27T07:08:23.387Z,-2.40
2023-03-27T07:13:25.186Z,-2.30
2023-03-27T07:15:52.751Z,-2.20
2023-03-27T07:18:24.132Z,-2.20
2023-03-27T07:20:51.492Z,-2.30
2023-03-27T07:23:18.677Z,-2.30
2023-03-27T07:25:46.017Z,-2.30
2023-03-27T07:28:16.883Z,-2.30
2023-03-27T07:30:47.745Z,-2.40
2023-03-27T07:33:15.246Z,-2.40
2023-03-27T07:35:47.267Z,-2.30
2023-03-27T07:38:17.111Z,-2.20
2023-03-27T07:40:47.283Z,-2.20
2023-03-27T07:43:15.561Z,-2.30
2023-03-27T07:45:43.130Z,-2.30
2023-03-27T07:48:16.367Z,-2.30
2023-03-27T07:50:45.262Z,-2.40
2023-03-27T07:53:33.019Z,-2.40
2023-03-27T07:56:00.354Z,-2.30
2023-03-27T07:58:27.679Z,-2.20
2023-03-27T08:00:58.368Z,-2.20
2023-03-27T08:03:26.783Z,-2.20
2023-03-27T08:05:58.952Z,-2.30
2023-03-27T08:08:29.671Z,-2.30
2023-03-27T08:10:58.093Z,-2.30
2023-03-27T08:13:26.110Z,-2.30
2023-03-27T08:16:01.928Z,-2.20
2023-03-27T08:18:29.050Z,-2.30
2023-03-27T08:20:57.676Z,-2.30
2023-03-27T08:23:29.169Z,-2.30
2023-03-27T08:26:00.649Z,-2.40
2023-03-27T08:28:29.090Z,-2.30
2023-03-27T08:31:02.922Z,-2.30
2023-03-27T08:33:31.132Z,-2.20
2023-03-27T08:35:58.693Z,-2.10
2023-03-27T08:38:28.867Z,-2.10
2023-03-27T08:40:59.880Z,-2.20
2023-03-27T08:43:47.574Z,-2.10
2023-03-27T08:46:25.519Z,-2.10
2023-03-27T08:49:17.808Z,-2.00
2023-03-27T08:51:55.729Z,-2.00
2023-03-27T08:54:27.517Z,-2.00
2023-03-27T08:56:58.318Z,-2.20
2023-03-27T08:59:29.016Z,-2.10
2023-03-27T09:02:15.325Z,-2.10
2023-03-27T09:04:55.867Z,-2.10
2023-03-27T09:07:32.936Z,-2.20
2023-03-27T09:10:14.823Z,-2.00
2023-03-27T09:12:42.229Z,-2.10
2023-03-27T09:15:20.423Z,-2.10
2023-03-27T09:17:54.454Z,-2.00
2023-03-27T09:20:36.818Z,-2.20
2023-03-27T09:23:09.138Z,-2.20
2023-03-27T09:25:45.497Z,-2.20
2023-03-27T09:28:51.781Z,-2.20
2023-03-27T09:31:36.498Z,-2.30
2023-03-27T09:34:07.323Z,-2.30
2023-03-27T09:36:39.127Z,-2.30
2023-03-27T09:39:09.103Z,-2.30
2023-03-27T09:41:49.250Z,-2.20
2023-03-27T09:44:21.206Z,-2.00
2023-03-27T09:46:52.442Z,-2.10
2023-03-27T09:49:21.453Z,-2.10
2023-03-27T09:51:50.197Z,-2.10
2023-03-27T09:54:21.137Z,-2.10
2023-03-27T09:56:57.609Z,-2.20
2023-03-27T09:59:33.229Z,-2.20
2023-03-27T10:02:09.537Z,-2.00
2023-03-27T10:04:36.806Z,-2.10
2023-03-27T10:07:08.445Z,-2.30
2023-03-27T10:09:37.911Z,-2.30
2023-03-27T10:12:08.170Z,-2.30
2023-03-27T10:14:47.157Z,-2.20
2023-03-27T10:17:36.935Z,-2.20
2023-03-27T10:20:19.139Z,-2.20
2023-03-27T10:22:54.768Z,-2.10
2023-03-27T10:25:30.114Z,-2.20
2023-03-27T10:28:18.559Z,-2.20
2023-03-27T10:30:57.397Z,-2.20
2023-03-27T10:33:34.052Z,-2.10
2023-03-27T10:36:02.099Z,-2.40
2023-03-27T10:38:29.927Z,-2.20
2023-03-27T10:40:57.530Z,-2.10
2023-03-27T10:43:33.749Z,-2.10
2023-03-27T10:46:07.327Z,-2.20
2023-03-27T10:49:23.521Z,-2.20
2023-03-27T10:51:57.024Z,-2.30
2023-03-27T10:54:51.362Z,-2.30
2023-03-27T10:57:27.434Z,-2.20
2023-03-27T11:00:20.176Z,-2.20
2023-03-27T11:02:50.726Z,-2.30
2023-03-27T11:05:39.106Z,-2.30
2023-03-27T11:08:18.452Z,-2.20
2023-03-27T11:11:22.774Z,-2.30
2023-03-27T11:13:49.875Z,-2.30
2023-03-27T11:16:34.999Z,-2.10
2023-03-27T11:19:11.444Z,-2.10
2023-03-27T11:21:50.176Z,-2.20
2023-03-27T11:24:29.950Z,-2.20
2023-03-27T11:27:21.155Z,-2.30
2023-03-27T11:30:04.796Z,-2.30
2023-03-27T11:32:49.853Z,-2.20
2023-03-27T11:35:27.860Z,-2.30
2023-03-27T11:38:13.087Z,-2.30
2023-03-27T11:40:43.380Z,-2.30
2023-03-27T11:43:13.112Z,-2.40
2023-03-27T11:46:12.311Z,-2.30
2023-03-27T11:48:57.524Z,-2.40
2023-03-27T11:51:55.142Z,-2.20
2023-03-27T11:55:01.109Z,-2.10
2023-03-27T11:57:28.325Z,-2.20
2023-03-27T11:59:59.667Z,-2.10
2023-03-27T12:02:27.861Z,-2.20
2023-03-27T12:05:05.083Z,-2.00
2023-03-27T12:08:03.395Z,-2.00
2023-03-27T12:10:38.570Z,-2.10
2023-03-27T12:13:28.740Z,-2.10
2023-03-27T12:16:29.697Z,-2.20
2023-03-27T12:19:28.500Z,-2.10
2023-03-27T12:22:32.540Z,-2.10
2023-03-27T12:25:21.912Z,-2.10
2023-03-27T12:28:22.734Z,-2.00
2023-03-27T12:31:04.400Z,-2.00
2023-03-27T12:33:50.816Z,-2.00
2023-03-27T12:36:22.639Z,-1.90
2023-03-27T12:38:51.331Z,-2.00
2023-03-27T12:41:24.551Z,-1.90
2023-03-27T12:44:03.671Z,-2.10
2023-03-27T12:46:39.329Z,-1.90
2023-03-27T12:49:08.664Z,-2.00
2023-03-27T12:51:48.654Z,-2.10
2023-03-27T12:54:30.062Z,-2.00
2023-03-27T12:57:05.918Z,-1.90
2023-03-27T12:59:37.543Z,-1.90
2023-03-27T13:02:04.589Z,-2.00
2023-03-27T13:05:06.803Z,-1.90
2023-03-27T13:07:53.400Z,-2.10
2023-03-27T13:10:49.460Z,-2.00
2023-03-27T13:13:24.865Z,-2.00
2023-03-27T13:15:59.444Z,-2.00
2023-03-27T13:18:41.840Z,-2.00
2023-03-27T13:21:30.764Z,-1.90
2023-03-27T13:24:32.557Z,-1.90
2023-03-27T13:27:19.987Z,-1.90
2023-03-27T13:29:52.730Z,-2.10
2023-03-27T13:32:41.351Z,-2.10
2023-03-27T13:35:23.221Z,-2.00
2023-03-27T13:37:50.462Z,-2.00
2023-03-27T13:40:28.577Z,-2.10
2023-03-27T13:43:21.391Z,-2.00
2023-03-27T13:46:01.682Z,-2.10
2023-03-27T13:49:18.513Z,-2.10
2023-03-27T13:51:50.411Z,-2.00
2023-03-27T13:55:06.052Z,-2.10
2023-03-27T13:58:13.758Z,-2.20
2023-03-27T14:01:04.942Z,-2.10
2023-03-27T14:04:14.778Z,-2.10
2023-03-27T14:06:45.849Z,-2.10
2023-03-27T14:09:37.041Z,-2.20
2023-03-27T14:12:31.255Z,-2.10
2023-03-27T14:15:33.072Z,-2.10
2023-03-27T14:18:26.518Z,-2.20
2023-03-27T14:21:02.418Z,-2.20
2023-03-27T14:23:38.267Z,-2.20
2023-03-27T14:26:12.984Z,-2.10
2023-03-27T14:28:52.112Z,-2.20
2023-03-27T14:31:21.096Z,-2.10
2023-03-27T14:34:03.522Z,-2.10
2023-03-27T14:36:34.258Z,-2.10
2023-03-27T14:39:26.131Z,-2.00
2023-03-27T14:42:00.614Z,-2.00
2023-03-27T14:44:31.755Z,-2.00
2023-03-27T14:47:05.018Z,-2.00
2023-03-27T14:49:40.658Z,-2.00
2023-03-27T14:52:10.710Z,-1.90
2023-03-27T14:54:54.391Z,-1.90
2023-03-27T14:57:26.035Z,-1.90
2023-03-27T14:59:54.614Z,-1.90
2023-03-27T15:02:30.665Z,-2.00
2023-03-27T15:05:09.903Z,-1.80
2023-03-27T15:07:37.778Z,-1.80
2023-03-27T15:10:10.407Z,-1.70
2023-03-27T15:12:37.693Z,-1.70
2023-03-27T15:15:39.146Z,-1.60
2023-03-27T15:18:15.287Z,-1.60
2023-03-27T15:20:43.485Z,-1.60
2023-03-27T15:23:31.542Z,-1.50
2023-03-27T15:26:05.187Z,-1.50
2023-03-27T15:28:47.110Z,-1.60
2023-03-27T15:31:15.475Z,-1.80
2023-03-27T15:34:21.258Z,-1.80
2023-03-27T15:36:55.559Z,-1.90
2023-03-27T15:39:23.751Z,-1.80
2023-03-27T15:42:03.091Z,-1.70
2023-03-27T15:44:32.663Z,-1.90
2023-03-27T15:47:03.928Z,-1.80
2023-03-27T15:49:41.401Z,-1.90
2023-03-27T15:52:29.855Z,-1.90
2023-03-27T15:54:57.749Z,-1.90
2023-03-27T15:57:31.585Z,-1.80
2023-03-27T16:00:12.780Z,-1.70
2023-03-27T16:02:40.890Z,-1.70
2023-03-27T16:05:08.251Z,-1.70
2023-03-27T16:07:48.672Z,-1.70
2023-03-27T16:10:31.461Z,-1.70
2023-03-27T16:13:02.921Z,-1.90
2023-03-27T16:15:41.945Z,-1.90
2023-03-27T16:18:46.551Z,-1.90
2023-03-27T16:21:14.041Z,-2.20
2023-03-27T16:23:44.538Z,-2.20
2023-03-27T16:26:16.701Z,-2.10
2023-03-27T16:28:44.224Z,-2.00
2023-03-27T16:31:14.931Z,-2.10
2023-03-27T16:33:43.268Z,-2.10
2023-03-27T16:36:13.340Z,-2.20
2023-03-27T16:38:42.170Z,-2.30
2023-03-27T16:41:18.204Z,-2.20
2023-03-27T16:43:46.117Z,-2.40
2023-03-27T16:46:35.126Z,-2.30
2023-03-27T16:49:02.290Z,-2.50
2023-03-27T16:51:29.567Z,-2.60
2023-03-27T16:53:57.459Z,-2.50
2023-03-27T16:56:24.701Z,-2.60
2023-03-27T16:58:55.110Z,-2.60
2023-03-27T17:01:24.129Z,-2.60
2023-03-27T17:04:32.352Z,-2.60
2023-03-27T17:06:59.596Z,-2.60
2023-03-27T17:09:27.734Z,-2.50
2023-03-27T17:11:56.028Z,-2.60
2023-03-27T17:14:23.156Z,-2.70
2023-03-27T17:16:51.622Z,-2.70
2023-03-27T17:19:19.196Z,-2.60
2023-03-27T17:21:46.368Z,-2.70
2023-03-27T17:24:14.796Z,-2.60
2023-03-27T17:26:54.476Z,-2.70
2023-03-27T17:29:22.204Z,-2.60
2023-03-27T17:31:49.410Z,-2.70
2023-03-27T17:34:19.569Z,-2.60
2023-03-27T17:36:52.536Z,-2.70
2023-03-27T17:39:22.160Z,-2.80
2023-03-27T17:41:51.445Z,-2.80
2023-03-27T17:44:18.828Z,-2.80
2023-03-27T17:46:46.151Z,-2.80
2023-03-27T17:49:13.616Z,-2.70
2023-03-27T17:51:41.251Z,-2.80
2023-03-27T17:54:08.976Z,-2.80
2023-03-27T17:56:38.784Z,-2.80
2023-03-27T17:59:06.075Z,-2.80
2023-03-27T18:01:33.324Z,-2.70
2023-03-27T18:04:00.947Z,-2.70
2023-03-27T18:06:33.844Z,-2.60
2023-03-27T18:09:01.264Z,-2.70
2023-03-27T18:11:29.689Z,-2.70
2023-03-27T18:13:56.827Z,-2.70
2023-03-27T18:16:24.017Z,-2.80
2023-03-27T18:18:52.462Z,-2.70
2023-03-27T18:21:19.596Z,-2.60
2023-03-27T18:23:47.145Z,-2.60
2023-03-27T18:26:15.337Z,-2.60
2023-03-27T18:28:42.805Z,-2.60
2023-03-27T18:31:12.757Z,-2.60
2023-03-27T18:33:39.975Z,-2.60
2023-03-27T18:36:11.105Z,-2.60
2023-03-27T18:38:41.181Z,-2.60
2023-03-27T18:41:09.714Z,-2.60
2023-03-27T18:43:37.102Z,-2.70
2023-03-27T18:46:07.123Z,-2.70
2023-03-27T18:48:39.432Z,-2.80
2023-03-27T18:51:06.699Z,-2.80
2023-03-27T18:53:34.621Z,-2.90
2023-03-27T18:56:02.812Z,-2.90
2023-03-27T18:58:30.442Z,-3.00
2023-03-27T19:00:58.561Z,-2.90
2023-03-27T19:03:30.681Z,-2.90
2023-03-27T19:06:01.865Z,-2.90
2023-03-27T19:08:30.559Z,-2.80
2023-03-27T19:10:59.305Z,-2.80
2023-03-27T19:13:26.939Z,-2.80
2023-03-27T19:15:54.453Z,-2.80
2023-03-27T19:18:21.825Z,-2.80
2023-03-27T19:20:49.796Z,-2.80
2023-03-27T19:23:19.502Z,-2.80
2023-03-27T19:25:50.605Z,-2.80
2023-03-27T19:28:17.996Z,-2.80
2023-03-27T19:30:46.579Z,-3.00
2023-03-27T19:33:14.302Z,-2.90
2023-03-27T19:35:41.573Z,-2.90
2023-03-27T19:38:08.805Z,-2.90
2023-03-27T19:40:36.004Z,-2.80
2023-03-27T19:43:03.080Z,-2.90
2023-03-27T19:45:30.418Z,-2.90
2023-03-27T19:47:58.545Z,-2.90
2023-03-27T19:50:29.329Z,-2.80
2023-03-27T19:53:07.379Z,-2.80
2023-03-27T19:55:35.985Z,-2.90
2023-03-27T19:58:04.393Z,-2.80
2023-03-27T20:00:32.768Z,-2.70
2023-03-27T20:03:00.713Z,-2.70
2023-03-27T20:05:29.725Z,-2.70
2023-03-27T20:07:56.777Z,-2.70
2023-03-27T20:10:27.630Z,-2.70
2023-03-27T20:12:54.727Z,-2.80
2023-03-27T20:15:22.581Z,-2.70
2023-03-27T20:17:49.698Z,-2.90
2023-03-27T20:20:17.186Z,-2.80
2023-03-27T20:22:57.191Z,-2.70
2023-03-27T20:25:25.594Z,-2.70
2023-03-27T20:27:52.930Z,-2.80
2023-03-27T20:30:19.992Z,-2.90
2023-03-27T20:32:47.281Z,-2.80
2023-03-27T20:35:23.622Z,-2.90
2023-03-27T20:37:57.986Z,-2.90
2023-03-27T20:40:30.199Z,-2.90
2023-03-27T20:43:07.434Z,-2.80
2023-03-27T20:45:34.925Z,-2.90
2023-03-27T20:48:05.185Z,-2.80
2023-03-27T20:50:35.528Z,-2.80
2023-03-27T20:53:04.783Z,-2.80
2023-03-27T20:55:34.685Z,-2.80
2023-03-27T20:58:06.767Z,-2.90
2023-03-27T21:00:34.383Z,-2.90
2023-03-27T21:03:01.941Z,-3.00
2023-03-27T21:05:29.556Z,-3.00
2023-03-27T21:07:56.738Z,-2.90
2023-03-27T21:10:25.267Z,-3.00
2023-03-27T21:12:54.416Z,-2.90
2023-03-27T21:15:21.836Z,-3.00
2023-03-27T21:17:59.857Z,-2.90
2023-03-27T21:20:27.547Z,-3.00
2023-03-27T21:22:54.562Z,-3.00
2023-03-27T21:25:22.844Z,-3.00
2023-03-27T21:27:50.146Z,-3.00
2023-03-27T21:30:17.676Z,-3.00
2023-03-27T21:32:47.318Z,-3.00
2023-03-27T21:35:14.752Z,-3.10
2023-03-27T21:37:42.888Z,-3.10
2023-03-27T21:40:10.687Z,-3.10
2023-03-27T21:42:37.808Z,-3.10
2023-03-27T21:45:05.514Z,-3.10
2023-03-27T21:47:46.728Z,-3.10
2023-03-27T21:50:14.645Z,-3.10
2023-03-27T21:52:41.902Z,-3.00
2023-03-27T21:55:09.389Z,-3.10
2023-03-27T21:57:36.723Z,-3.00
2023-03-27T22:00:05.768Z,-3.00
2023-03-27T22:02:32.918Z,-2.90
2023-03-27T22:05:00.287Z,-2.90
2023-03-27T22:07:27.590Z,-2.90
2023-03-27T22:09:54.606Z,-2.90
2023-03-27T22:12:21.892Z,-2.90
2023-03-27T22:14:49.068Z,-2.90
2023-03-27T22:17:16.892Z,-2.90
2023-03-27T22:19:44.305Z,-2.90
2023-03-27T22:22:11.502Z,-2.80
2023-03-27T22:24:38.944Z,-2.80
2023-03-27T22:27:06.068Z,-2.80
2023-03-27T22:29:33.208Z,-2.90
2023-03-27T22:32:00.482Z,-2.90
2023-03-27T22:34:27.964Z,-2.90
2023-03-27T22:36:55.192Z,-2.80
2023-03-27T22:39:22.438Z,-2.90
2023-03-27T22:41:49.666Z,-2.90
2023-03-27T22:44:19.513Z,-2.90
2023-03-27T22:46:46.586Z,-2.90
2023-03-27T22:49:14.988Z,-3.00
2023-03-27T22:51:42.059Z,-3.00
2023-03-27T22:54:09.184Z,-3.00
2023-03-27T22:56:36.549Z,-2.90
2023-03-27T22:59:04.025Z,-3.10
2023-03-27T23:01:31.185Z,-3.10
2023-03-27T23:03:58.478Z,-3.10
2023-03-27T23:06:25.798Z,-3.10
2023-03-27T23:08:53.206Z,-3.10
2023-03-27T23:11:20.431Z,-3.10
2023-03-27T23:13:47.663Z,-3.10
2023-03-27T23:16:15.169Z,-3.10
2023-03-27T23:18:42.296Z,-3.10
2023-03-27T23:21:11.824Z,-3.20
2023-03-27T23:23:40.612Z,-3.10
2023-03-27T23:26:08.494Z,-3.20
2023-03-27T23:28:38.006Z,-3.10
2023-03-27T23:31:11.229Z,-3.10
2023-03-27T23:34:32.830Z,-3.10
2023-03-27T23:36:57.920Z,-3.10
2023-03-27T23:39:26.503Z,-3.10
2023-03-27T23:41:53.549Z,-3.10
2023-03-27T23:44:20.798Z,-3.10
2023-03-27T23:46:47.875Z,-3.10
2023-03-27T23:49:15.081Z,-3.10
2023-03-27T23:51:42.195Z,-3.20
2023-03-27T23:54:09.292Z,-3.10
2023-03-27T23:56:36.353Z,-3.20
2023-03-27T23:59:03.736Z,-3.20
